createdAt,value
2022-12-10T00:02:34.758Z,128.57
2022-12-10T00:05:37.542Z,148.18
2022-12-10T00:08:40.208Z,139.50
2022-12-10T00:11:44.149Z,139.85
2022-12-10T00:14:46.765Z,141.95
2022-12-10T00:17:49.329Z,140.63
2022-12-10T00:20:51.904Z,144.15
2022-12-10T00:23:54.666Z,141.10
2022-12-10T00:26:58.622Z,133.70
2022-12-10T00:30:01.215Z,144.57
2022-12-10T00:33:03.862Z,136.98
2022-12-10T00:36:07.458Z,123.78
2022-12-10T00:39:10.032Z,119.75
2022-12-10T00:42:13.989Z,119.00
2022-12-10T00:45:16.659Z,125.75
2022-12-10T00:48:19.245Z,118.38
2022-12-10T00:51:22.549Z,117.50
2022-12-10T00:54:25.165Z,104.90
2022-12-10T00:57:29.113Z,101.78
2022-12-10T01:00:31.756Z,116.45
2022-12-10T01:03:34.376Z,113.13
2022-12-10T01:06:38.006Z,115.35
2022-12-10T01:09:40.633Z,118.95
2022-12-10T01:12:45.874Z,119.60
2022-12-10T01:15:48.477Z,115.60
2022-12-10T01:18:51.085Z,134.02
2022-12-10T01:21:53.819Z,148.32
2022-12-10T01:24:56.430Z,165.43
2022-12-10T01:28:00.370Z,163.85
2022-12-10T01:31:03.801Z,157.73
2022-12-10T01:34:07.482Z,189.20
2022-12-10T01:37:10.088Z,160.40
2022-12-10T01:40:13.485Z,169.70
2022-12-10T01:43:17.465Z,170.13
2022-12-10T01:46:20.060Z,183.48
2022-12-10T01:49:23.459Z,182.77
2022-12-10T01:52:26.024Z,174.27
2022-12-10T01:55:44.263Z,199.93
2022-12-10T01:58:48.912Z,216.13
2022-12-10T02:01:54.100Z,189.45
2022-12-10T02:05:04.141Z,234.73
2022-12-10T02:08:08.509Z,221.25
2022-12-10T02:11:17.103Z,231.73
2022-12-10T02:14:24.481Z,249.90
2022-12-10T02:17:28.429Z,252.15
2022-12-10T02:20:33.785Z,256.35
2022-12-10T02:23:37.930Z,239.30
2022-12-10T02:26:44.959Z,281.95
2022-12-10T02:29:48.990Z,285.70
2022-12-10T02:32:51.561Z,324.92
2022-12-10T02:35:54.149Z,415.00
2022-12-10T02:38:56.841Z,397.20
2022-12-10T02:41:59.566Z,381.63
2022-12-10T02:45:03.499Z,516.38
2022-12-10T02:48:06.483Z,513.75
2022-12-10T02:51:09.163Z,416.95
2022-12-10T02:54:38.473Z,510.40
2022-12-10T02:57:44.363Z,382.77
2022-12-10T03:00:52.469Z,451.95
2022-12-10T03:03:56.718Z,491.90
2022-12-10T03:07:00.329Z,534.20
2022-12-10T03:10:04.946Z,421.35
2022-12-10T03:13:09.117Z,415.48
2022-12-10T03:16:13.126Z,455.90
2022-12-10T03:19:17.240Z,508.63
2022-12-10T03:22:20.347Z,499.48
2022-12-10T03:25:25.076Z,477.05
2022-12-10T03:28:27.682Z,513.05
2022-12-10T03:31:31.640Z,547.35
2022-12-10T03:34:34.276Z,472.50
2022-12-10T03:37:36.843Z,603.83
2022-12-10T03:40:39.400Z,485.38
2022-12-10T03:43:55.104Z,511.17
2022-12-10T03:46:59.069Z,478.35
2022-12-10T03:50:01.625Z,558.90
2022-12-10T03:53:04.222Z,548.25
2022-12-10T03:56:06.836Z,464.73
2022-12-10T03:59:09.405Z,527.53
2022-12-10T04:02:13.331Z,433.88
2022-12-10T04:05:16.669Z,492.80
2022-12-10T04:08:19.388Z,559.38
2022-12-10T04:11:22.028Z,448.83
2022-12-10T04:14:42.112Z,712.95
2022-12-10T04:17:46.093Z,666.08
2022-12-10T04:21:06.245Z,547.03
2022-12-10T04:24:27.516Z,503.73
2022-12-10T04:27:30.851Z,639.22
2022-12-10T04:30:33.563Z,493.65
2022-12-10T04:33:37.545Z,524.80
2022-12-10T04:36:40.151Z,571.47
2022-12-10T04:39:42.733Z,541.83
2022-12-10T04:42:45.342Z,630.88
2022-12-10T04:45:48.168Z,526.35
2022-12-10T04:48:52.155Z,504.30
2022-12-10T04:51:56.220Z,480.17
2022-12-10T04:54:58.853Z,509.77
2022-12-10T04:58:01.470Z,600.90
2022-12-10T05:01:04.619Z,461.23
2022-12-10T05:04:09.767Z,617.17
2022-12-10T05:07:12.393Z,436.45
2022-12-10T05:10:14.936Z,444.98
2022-12-10T05:13:17.497Z,548.15
2022-12-10T05:16:20.841Z,440.40
2022-12-10T05:19:24.813Z,406.50
2022-12-10T05:22:45.217Z,418.77
2022-12-10T05:25:54.492Z,468.15
2022-12-10T05:28:57.781Z,450.48
2022-12-10T05:32:00.376Z,517.97
2022-12-10T05:35:04.549Z,521.33
2022-12-10T05:38:07.145Z,511.27
2022-12-10T05:41:12.654Z,507.08
2022-12-10T05:44:15.233Z,499.08
2022-12-10T05:47:17.800Z,418.40
2022-12-10T05:50:21.708Z,404.27
2022-12-10T05:53:24.289Z,465.70
2022-12-10T05:56:27.228Z,567.95
2022-12-10T05:59:29.795Z,393.98
2022-12-10T06:02:34.387Z,373.50
2022-12-10T06:05:39.570Z,340.67
2022-12-10T06:08:42.343Z,438.50
2022-12-10T06:11:45.033Z,423.45
2022-12-10T06:14:48.358Z,433.70
2022-12-10T06:17:50.967Z,379.25
2022-12-10T06:20:54.883Z,456.13
2022-12-10T06:23:57.601Z,383.23
2022-12-10T06:27:00.226Z,471.13
2022-12-10T06:30:02.792Z,358.55
2022-12-10T06:33:05.404Z,426.60
2022-12-10T06:36:10.627Z,455.65
2022-12-10T06:39:13.604Z,435.92
2022-12-10T06:42:16.288Z,347.90
2022-12-10T06:45:19.048Z,364.35
2022-12-10T06:48:21.663Z,339.05
2022-12-10T06:51:25.571Z,348.88
2022-12-10T06:54:28.408Z,290.90
2022-12-10T06:57:31.045Z,405.58
2022-12-10T07:00:33.713Z,394.52
2022-12-10T07:03:36.484Z,375.00
2022-12-10T07:06:40.382Z,341.90
2022-12-10T07:09:43.082Z,345.83
2022-12-10T07:12:45.676Z,389.65
2022-12-10T07:15:48.338Z,299.15
2022-12-10T07:18:52.618Z,290.77
2022-12-10T07:21:56.843Z,350.70
2022-12-10T07:24:59.451Z,385.00
2022-12-10T07:28:02.072Z,265.52
2022-12-10T07:31:04.761Z,252.52
2022-12-10T07:34:07.337Z,251.75
2022-12-10T07:37:11.378Z,253.82
2022-12-10T07:40:14.134Z,259.45
2022-12-10T07:43:16.705Z,193.65
2022-12-10T07:46:20.387Z,216.13
2022-12-10T07:49:23.057Z,330.02
2022-12-10T07:52:27.013Z,274.20
2022-12-10T07:55:29.565Z,228.07
2022-12-10T07:58:32.182Z,317.25
2022-12-10T08:01:34.768Z,309.00
2022-12-10T08:04:38.530Z,318.83
2022-12-10T08:07:42.857Z,404.55
2022-12-10T08:10:45.453Z,236.65
2022-12-10T08:13:53.426Z,317.23
2022-12-10T08:16:59.065Z,313.23
2022-12-10T08:20:01.679Z,296.10
2022-12-10T08:23:05.638Z,261.90
2022-12-10T08:26:08.444Z,329.77
2022-12-10T08:29:11.014Z,312.10
2022-12-10T08:32:13.663Z,326.70
2022-12-10T08:35:16.471Z,381.63
2022-12-10T08:38:20.417Z,241.50
2022-12-10T08:41:23.788Z,238.63
2022-12-10T08:44:26.332Z,320.67
2022-12-10T08:47:28.950Z,238.55
2022-12-10T08:50:31.524Z,286.83
2022-12-10T08:53:35.632Z,259.73
2022-12-10T08:56:40.166Z,239.10
2022-12-10T08:59:42.793Z,299.35
2022-12-10T09:02:45.400Z,353.23
2022-12-10T09:05:48.504Z,394.67
2022-12-10T09:08:52.659Z,318.58
2022-12-10T09:11:55.216Z,297.05
2022-12-10T09:14:57.776Z,314.58
2022-12-10T09:18:00.326Z,321.70
2022-12-10T09:21:06.885Z,279.70
2022-12-10T09:24:10.929Z,339.40
2022-12-10T09:27:13.533Z,294.65
2022-12-10T09:30:18.169Z,240.18
2022-12-10T09:33:20.769Z,342.30
2022-12-10T09:36:25.477Z,399.98
2022-12-10T09:39:32.661Z,273.65
2022-12-10T09:42:40.246Z,288.33
2022-12-10T09:45:46.299Z,248.95
2022-12-10T09:48:55.392Z,298.17
2022-12-10T09:51:59.682Z,262.92
2022-12-10T09:55:05.063Z,293.45
2022-12-10T09:58:08.299Z,207.45
2022-12-10T10:01:11.609Z,253.98
2022-12-10T10:04:14.630Z,324.95
2022-12-10T10:07:21.126Z,317.35
2022-12-10T10:10:27.550Z,302.50
2022-12-10T10:13:33.621Z,305.00
2022-12-10T10:16:36.997Z,297.15
2022-12-10T10:19:40.486Z,267.45
2022-12-10T10:22:43.075Z,271.95
2022-12-10T10:25:47.114Z,280.00
2022-12-10T10:28:50.019Z,269.95
2022-12-10T10:32:13.160Z,298.95
2022-12-10T10:35:23.042Z,249.27
2022-12-10T10:38:26.337Z,332.48
2022-12-10T10:41:30.493Z,336.67
2022-12-10T10:44:36.616Z,263.27
2022-12-10T10:47:39.195Z,307.70
2022-12-10T10:50:43.474Z,258.90
2022-12-10T10:53:46.541Z,252.10
2022-12-10T10:56:50.434Z,240.25
2022-12-10T10:59:53.741Z,216.20
2022-12-10T11:02:56.305Z,214.95
2022-12-10T11:05:59.530Z,225.60
2022-12-10T11:09:02.150Z,142.45
2022-12-10T11:12:07.410Z,155.73
2022-12-10T11:15:32.441Z,175.27
2022-12-10T11:18:36.344Z,178.50
2022-12-10T11:21:39.171Z,191.73
2022-12-10T11:24:41.757Z,169.27
2022-12-10T11:27:51.137Z,195.18
2022-12-10T11:30:56.714Z,174.23
2022-12-10T11:34:05.168Z,182.98
2022-12-10T11:40:34.760Z,205.07
2022-12-10T11:43:47.195Z,224.98
2022-12-10T11:47:11.643Z,176.30
2022-12-10T11:50:17.574Z,191.52
2022-12-10T11:53:45.380Z,196.90
2022-12-10T11:56:51.914Z,174.68
2022-12-10T12:00:06.349Z,197.03
2022-12-10T12:03:29.766Z,192.60
2022-12-10T12:06:51.579Z,218.50
2022-12-10T12:10:19.513Z,178.52
2022-12-10T12:13:24.587Z,198.27
2022-12-10T12:16:31.647Z,238.35
2022-12-10T12:19:36.291Z,240.18
2022-12-10T12:22:40.469Z,220.32
2022-12-10T12:25:46.424Z,276.85
2022-12-10T12:28:50.032Z,251.02
2022-12-10T12:31:58.253Z,236.45
2022-12-10T12:35:01.980Z,235.95
2022-12-10T12:38:08.596Z,242.82
2022-12-10T12:41:14.915Z,236.07
2022-12-10T12:44:20.920Z,250.73
2022-12-10T12:47:31.274Z,217.25
2022-12-10T12:50:39.336Z,212.77
2022-12-10T12:53:41.977Z,228.75
2022-12-10T12:56:55.205Z,199.55
2022-12-10T12:59:59.890Z,262.25
2022-12-10T13:03:09.666Z,218.75
2022-12-10T13:06:20.186Z,218.75
2022-12-10T13:09:27.838Z,215.73
2022-12-10T13:12:31.513Z,199.23
2022-12-10T13:15:36.040Z,228.52
2022-12-10T13:18:40.757Z,205.90
2022-12-10T13:22:02.473Z,194.80
2022-12-10T13:25:13.720Z,169.60
2022-12-10T13:28:23.911Z,200.38
2022-12-10T13:31:37.486Z,80.93
2022-12-10T13:34:41.530Z,173.07
2022-12-10T13:37:56.905Z,171.20
2022-12-10T13:41:21.884Z,164.48
2022-12-10T13:44:27.440Z,150.05
2022-12-10T13:47:34.052Z,156.52
2022-12-10T13:50:38.886Z,176.37
2022-12-10T13:53:45.815Z,143.40
2022-12-10T13:56:50.813Z,160.10
2022-12-10T13:59:58.553Z,164.38
2022-12-10T14:03:16.835Z,154.52
2022-12-10T14:06:20.879Z,163.68
2022-12-10T14:09:25.721Z,176.45
2022-12-10T14:12:29.793Z,142.38
2022-12-10T14:15:32.444Z,133.80
2022-12-10T14:18:35.014Z,122.78
2022-12-10T14:21:40.468Z,123.15
2022-12-10T14:24:44.282Z,143.07
2022-12-10T14:27:48.515Z,144.60
2022-12-10T14:30:51.152Z,150.80
2022-12-10T14:33:53.752Z,153.25
2022-12-10T14:36:58.462Z,158.40
2022-12-10T14:40:01.090Z,161.73
2022-12-10T14:43:05.385Z,144.15
2022-12-10T14:46:23.019Z,171.68
2022-12-10T14:49:27.384Z,136.85
2022-12-10T14:52:36.344Z,186.10
2022-12-10T14:55:38.946Z,182.90
2022-12-10T14:58:43.229Z,159.68
2022-12-10T15:01:47.472Z,180.23
2022-12-10T15:04:50.747Z,178.98
2022-12-10T15:07:56.050Z,179.98
2022-12-10T15:10:59.737Z,196.18
2022-12-10T15:14:03.199Z,211.23
2022-12-10T15:17:05.794Z,151.40
2022-12-10T15:20:22.213Z,200.00
2022-12-10T15:23:27.969Z,182.20
2022-12-10T15:26:30.778Z,187.65
2022-12-10T15:29:36.709Z,164.82
2022-12-10T15:32:39.293Z,189.00
2022-12-10T15:35:41.887Z,166.80
2022-12-10T15:38:46.306Z,168.98
2022-12-10T15:41:49.381Z,186.23
2022-12-10T15:44:51.951Z,192.18
2022-12-10T15:47:55.111Z,188.70
2022-12-10T15:50:58.737Z,193.65
2022-12-10T15:54:02.677Z,173.95
2022-12-10T15:57:13.167Z,202.45
2022-12-10T16:00:21.004Z,219.07
2022-12-10T16:03:24.078Z,208.77
2022-12-10T16:06:26.693Z,193.57
2022-12-10T16:09:30.642Z,197.20
2022-12-10T16:12:37.232Z,195.23
2022-12-10T16:15:45.045Z,190.30
2022-12-10T16:18:47.791Z,178.77
2022-12-10T16:21:50.364Z,188.65
2022-12-10T16:24:54.303Z,200.75
2022-12-10T16:27:56.941Z,194.00
2022-12-10T16:31:00.769Z,201.25
2022-12-10T16:34:03.395Z,186.15
2022-12-10T16:37:06.182Z,175.82
2022-12-10T16:40:11.240Z,179.48
2022-12-10T16:43:14.641Z,178.80
2022-12-10T16:46:17.315Z,199.50
2022-12-10T16:49:19.974Z,177.05
2022-12-10T16:52:22.679Z,177.35
2022-12-10T16:55:27.322Z,163.02
2022-12-10T16:58:29.926Z,157.88
2022-12-10T17:01:32.814Z,152.27
2022-12-10T17:04:35.434Z,156.77
2022-12-10T17:07:38.031Z,157.05
2022-12-10T17:10:59.729Z,154.75
2022-12-10T17:14:02.421Z,158.80
2022-12-10T17:17:05.042Z,154.07
2022-12-10T17:20:21.119Z,150.23
2022-12-10T17:23:24.148Z,162.38
2022-12-10T17:26:29.571Z,161.35
2022-12-10T17:29:33.640Z,155.05
2022-12-10T17:32:36.219Z,175.20
2022-12-10T17:35:38.815Z,155.20
2022-12-10T17:38:41.418Z,142.93
2022-12-10T17:41:45.474Z,159.07
2022-12-10T17:44:48.063Z,157.90
2022-12-10T17:47:50.665Z,145.35
2022-12-10T17:50:53.281Z,156.48
2022-12-10T17:53:55.915Z,155.10
2022-12-10T17:57:01.026Z,148.48
2022-12-10T18:00:03.854Z,138.27
2022-12-10T18:03:06.866Z,155.27
2022-12-10T18:06:12.394Z,146.95
2022-12-10T18:09:15.025Z,151.40
2022-12-10T18:12:18.930Z,127.60
2022-12-10T18:15:21.676Z,146.35
2022-12-10T18:18:24.288Z,140.13
2022-12-10T18:21:27.212Z,118.45
2022-12-10T18:24:30.114Z,85.47
2022-12-10T18:27:34.037Z,67.20
2022-12-10T18:30:36.656Z,67.55
2022-12-10T18:33:40.242Z,55.58
2022-12-10T18:36:43.918Z,45.17
2022-12-10T18:39:46.529Z,47.53
2022-12-10T18:42:51.416Z,56.65
2022-12-10T18:45:54.059Z,48.38
2022-12-10T18:48:56.839Z,63.58
2022-12-10T18:51:59.400Z,62.97
2022-12-10T18:55:02.051Z,68.40
2022-12-10T18:58:07.121Z,60.53
2022-12-10T19:01:10.240Z,56.92
2022-12-10T19:04:13.198Z,58.60
2022-12-10T19:07:15.796Z,58.17
2022-12-10T19:10:20.317Z,62.70
2022-12-10T19:13:24.291Z,41.63
2022-12-10T19:16:27.210Z,43.28
2022-12-10T19:19:29.860Z,36.83
2022-12-10T19:22:32.842Z,37.60
2022-12-10T19:25:36.078Z,34.65
2022-12-10T19:28:40.045Z,40.13
2022-12-10T19:31:42.788Z,38.85
2022-12-10T19:34:45.366Z,39.88
2022-12-10T19:37:50.625Z,53.03
2022-12-10T19:40:56.958Z,45.38
2022-12-10T19:44:00.896Z,53.53
2022-12-10T19:47:03.516Z,48.58
2022-12-10T19:50:06.918Z,56.92
2022-12-10T19:53:10.123Z,214.43
2022-12-10T19:56:19.256Z,60.63
2022-12-10T19:59:23.230Z,64.93
2022-12-10T20:02:25.811Z,69.93
2022-12-10T20:05:28.483Z,67.95
2022-12-10T20:08:32.178Z,67.28
2022-12-10T20:11:35.141Z,66.90
2022-12-10T20:14:39.061Z,72.13
2022-12-10T20:17:41.629Z,77.68
2022-12-10T20:20:44.215Z,60.88
2022-12-10T20:23:46.981Z,79.82
2022-12-10T20:26:49.790Z,75.43
2022-12-10T20:29:53.920Z,65.13
2022-12-10T20:32:56.616Z,67.95
2022-12-10T20:35:59.309Z,62.08
2022-12-10T20:39:01.896Z,62.38
2022-12-10T20:42:05.551Z,67.65
2022-12-10T20:45:10.186Z,63.30
2022-12-10T20:48:12.902Z,66.65
2022-12-10T20:51:15.503Z,66.85
2022-12-10T20:54:18.105Z,64.13
2022-12-10T20:57:20.696Z,79.22
2022-12-10T21:00:24.657Z,71.00
2022-12-10T21:03:27.262Z,74.60
2022-12-10T21:06:30.572Z,75.93
2022-12-10T21:09:33.122Z,80.38
2022-12-10T21:12:35.694Z,83.25
2022-12-10T21:15:39.728Z,70.45
2022-12-10T21:18:42.373Z,80.50
2022-12-10T21:21:45.678Z,76.95
2022-12-10T21:24:48.226Z,76.20
2022-12-10T21:27:50.781Z,74.25
2022-12-10T21:30:54.891Z,76.35
2022-12-10T21:33:57.577Z,71.50
2022-12-10T21:37:00.154Z,82.93
2022-12-10T21:40:02.814Z,73.18
2022-12-10T21:43:17.139Z,73.80
2022-12-10T21:46:21.180Z,71.20
2022-12-10T21:49:23.832Z,67.13
2022-12-10T21:52:26.409Z,68.28
2022-12-10T21:55:30.772Z,66.32
2022-12-10T21:58:33.543Z,65.10
2022-12-10T22:01:37.556Z,61.88
2022-12-10T22:04:40.438Z,62.90
2022-12-10T22:07:43.260Z,54.58
2022-12-10T22:10:50.130Z,61.72
2022-12-10T22:13:54.029Z,59.60
2022-12-10T22:16:58.016Z,65.00
2022-12-10T22:20:00.625Z,70.70
2022-12-10T22:23:03.410Z,70.50
2022-12-10T22:26:08.665Z,81.28
2022-12-10T22:29:11.269Z,72.25
2022-12-10T22:32:15.338Z,70.20
2022-12-10T22:35:18.004Z,68.13
2022-12-10T22:38:20.576Z,70.68
2022-12-10T22:41:23.186Z,65.82
2022-12-10T22:44:25.806Z,72.43
2022-12-10T22:47:29.893Z,61.85
2022-12-10T22:50:32.453Z,60.22
2022-12-10T22:53:35.202Z,59.92
2022-12-10T22:56:38.610Z,60.83
2022-12-10T22:59:41.229Z,71.03
2022-12-10T23:02:45.297Z,71.47
2022-12-10T23:05:47.912Z,59.85
2022-12-10T23:08:50.643Z,56.97
2022-12-10T23:12:10.688Z,60.00
2022-12-10T23:15:13.243Z,73.45
2022-12-10T23:18:17.146Z,62.63
2022-12-10T23:21:21.227Z,66.50
2022-12-10T23:24:23.834Z,67.47
2022-12-10T23:27:26.478Z,61.53
2022-12-10T23:30:29.093Z,63.55
2022-12-10T23:33:33.351Z,60.33
2022-12-10T23:36:35.910Z,63.17
2022-12-10T23:39:38.897Z,58.20
2022-12-10T23:42:41.466Z,58.13
2022-12-10T23:45:44.487Z,59.65
2022-12-10T23:48:48.528Z,63.53
2022-12-10T23:51:51.103Z,55.33
2022-12-10T23:54:53.673Z,55.35
2022-12-10T23:57:56.392Z,55.97
